Holsey, Louisiana
Current Conditions -  °F | °C
As of 8:53 AM on Thursday 23 Oct 2014 (Local Time) from KELD Reporting Station
Clear Clear  
Wind Chill: 51°   Ceiling: Unl
Heat Index: 51°   Visibility: 10mi
Dew Point: 47°   Wind: 3mph
Humidity: 86%   Direction: 20°NNE
Pressure: 30.19"   Gusts: NA
Location:  32.8398°N, 92.8601°W
Report Text: KELD 231353Z AUTO 02003KT 10SM CLR 11/08 A3019 RMK AO2 SLP222 T01060083
Loading
Personal Weather Stations






























Interactive Weather Map
Tropical Storm Tracking
New forecast layout! Learn more

10-Day Weather Forecast

Advertisements
Track Severe Weather on mobile